CheckWX is a tool to help pilots better visualize weather data.  It is not intended as a substitute for an official pre-flight weather briefing.

00:27:58 UTC

KFLL TAF
Fort Lauderdale / Hollywood International Airport
Fort Lauderdale, Florida, USA
KFLL 012339Z 0200/0306 09012KT P6SM SCT030 SCT150 FM020500 09010KT P6SM VCSH SCT020 BKN050 FM021500 11015G25KT P6SM VCSH SCT025 BKN060 FM030200 09010KT P6SM SCT020 BKN050

Jun-2@
00:00 UTC

Jun-2 @ 00:00 UTC

Jun-2@
05:00 UTC

Jun-2 @ 05:00 UTC

TAF KFLL 012339Z 0200/0306 09012KT P6SM SCT030 SCT150

Expired

Wind
  • 090° at 12 KTS
Cloud Levels
  • Scattered at 3,000' AGL
  • Scattered at 15,000' AGL

Jun-2@
05:00 UTC

Jun-2 @ 05:00 UTC

Jun-2@
15:00 UTC

Jun-2 @ 15:00 UTC

FM020500 09010KT P6SM VCSH SCT020 BKN050

Expired

Wind
  • 090° at 10 KTS
Conditions
Area Showers
Cloud Levels
  • Scattered at 2,000' AGL
  • Broken at 5,000' AGL

Jun-2@
15:00 UTC

Jun-2 @ 15:00 UTC

Jun-3@
02:00 UTC

Jun-3 @ 02:00 UTC

FM021500 11015G25KT P6SM VCSH SCT025 BKN060

From

From Standard forecast or significant change

Wind
  • 110° at 15 KTS
  • {Gusting to 25 KTS
Conditions
Area Showers
Cloud Levels
  • Scattered at 2,500' AGL
  • Broken at 6,000' AGL

Jun-3@
02:00 UTC

Jun-3 @ 02:00 UTC

Jun-3@
06:00 UTC

Jun-3 @ 06:00 UTC

FM030200 09010KT P6SM SCT020 BKN050

From

From Standard forecast or significant change

Wind
  • 090° at 10 KTS
Cloud Levels
  • Scattered at 2,000' AGL
  • Broken at 5,000' AGL